Карточка аэропорта UNEE

Внимание!
Информация на этой странице в стадии наполнения.
Если вы не увидели какой-то информации, или заметили неточность - пожалуйста сообщите нам!
Спасибо!
Команда RU-STAFF
Название аэропортаКемерово
Название аэропорта (англ.)Kemerovo
Превышение873 ft. (266.1 m.)
Координаты55°16.2', 86°6.6'
Высота перехода500m
Эшелон переходаQFE>=760mm:FL030; QFE<=759=>733mm:FL040; QFE<=732mm:FL050
Коды ответчика5260-5267
Зона ОрВДНовосибирск РПИ (UNNT)
Данные METARUNEE 131500Z 14004MPS 8000 -SN OVC003 01/01 Q1008 R23/////// NOSIG RMK QFE733
Проноз погоды (TAF)UNEE 131400Z 1315/1415 17007G15MPS 8000 -SHRA BKN004 BKN016CB TEMPO 1315/1401 13003G08MPS 0500 -SHSNRA FG BKN001 BKN011CB BECMG 1401/1405 21008G17MPS BKN016CB TEMPO 1405/1411 17007G15MPS BKN011CB BECMG 1411/1414 17003G08MPS
NOTAMshow/hide NOTAM
AWOS   TABLE

Информация о ВПП

ВПП Длина ВПП (м.) Покрытие Курс ВПП Частота ILS
053200Цементобетон46 
233200Цементобетон226109.1

Диспетчерские позиции

Позывной Наименование органа УВД Частота
UNEE_TWRКемерово-Старт118.3
UNEE_APPКемерово-Подход125.5



Спутниковое изображение